Jack C. Davis Observatory, Carson City, Nevada Weather observations

Data are for observation ending at time listed.
 Day   Time    Ave.   Ave.  Ave.  Vector   Max.   Stn.    Total    Solar   Ave.  
  of    of     Air    Rel.  Wind   Wind    Wind   Baro.  Precip.   Rad.    Soil  
Year   Day     Temp.  Hum.  Speed  Dir.    Gust   Pres.                    Temp. 
2015   (PST)    F      %     mph   deg.    mph     mb.     in.     W/m2     F   
------------------------------------------------------------------------------
  26   14:30   54.5    32    3.1   108      6.2   847.6    0.00     365    999.0
  26   14:40   55.1    32    4.7   127      7.6   847.6    0.00     394    999.0
  26   14:50   57.0    30    3.1   162      5.4   847.5    0.00     358    999.0
  26   15:00   58.1    28    2.9   137      6.1   847.5    0.00     357    999.0
  26   15:10   58.1    28    4.1   125      8.4   847.3    0.00     313    999.0
  26   15:20   57.1    29    4.5   110      8.0   847.3    0.00     255    999.0
  26   15:30   56.2    30    3.6   144      7.1   847.2    0.00     163    999.0
  26   15:40   56.2    30    3.0   175      5.2   847.2    0.00     112    999.0
  26   15:50   55.5    30    3.5   127      6.6   847.2    0.00     153    999.0
  26   16:00   55.0    31    4.0    90      6.5   847.1    0.00     184    999.0
  26   16:10   54.6    31    3.8    99      6.0   847.0    0.00     166    999.0
  26   16:20   54.4    31    4.7   111      6.5   847.0    0.00     117    999.0
  26   16:30   53.8    32    3.7   127      5.0   847.0    0.00      82    999.0
  26   16:40   53.4    33    3.2   159      4.9   847.0    0.00      58    999.0
  26   16:50   52.5    35    3.1   195      5.3   847.0    0.00      39    999.0
  26   17:00   51.2    38    4.4   213      6.3   847.2    0.00      26    999.0
  26   17:10   50.4    38    4.4   216      6.5   847.4    0.00      11    999.0
  26   17:20   49.8    38    3.4   194      5.2   847.4    0.00       1    999.0
  26   17:30   49.1    39    3.6   230      5.4   847.3    0.00       0    999.0
  26   17:40   47.0    43    5.8   258      8.2   847.2    0.00       0    999.0
  26   17:50   46.7    43    4.5   260      6.3   847.2    0.00       0    999.0
  26   18:00   46.9    43    5.8   263      7.6   847.1    0.00       0    999.0
  26   18:10   45.5    46    7.0   266      8.2   847.1    0.00       0    999.0
  26   18:20   45.2    46    6.2   254      8.0   847.2    0.00       0    999.0
  26   18:30   45.4    46    6.3   254      8.7   847.2    0.00       0    999.0
  26   18:40   47.0    42    5.1   234      6.8   847.3    0.00       0    999.0
  26   18:50   46.3    44    5.9   228      8.0   847.3    0.00       0    999.0
  26   19:00   47.1    42    6.4   211      8.6   847.4    0.00       0    999.0
  26   19:10   46.8    42    5.5   222      7.0   847.6    0.00       0    999.0
  26   19:20   46.5    43    5.5   233      7.6   847.7    0.00       0    999.0
  26   19:30   46.1    44    5.6   235      7.1   847.9    0.00       0    999.0
  26   19:40   45.1    46    5.4   257      6.5   847.8    0.00       0    999.0
  26   19:50   46.0    44    3.8   264      5.2   847.7    0.00       0    999.0
  26   20:00   46.5    43    2.8   254      4.8   847.8    0.00       0    999.0
  26   20:10   46.3    44    3.2   282      5.7   847.6    0.00       0    999.0
  26   20:20   44.2    47    1.8   303      4.3   847.6    0.00       0    999.0
  26   20:30   44.5    46    2.1   283      4.6   847.5    0.00       0    999.0
  26   20:40   43.8    49    4.4   271      6.0   847.6    0.00       0    999.0
  26   20:50   42.8    51    5.5   270      7.3   847.5    0.00       0    999.0
  26   21:00   42.7    51    6.0   274      8.2   847.4    0.00       0    999.0
  26   21:10   42.4    50    5.9   277      7.8   847.4    0.00       0    999.0
  26   21:20   42.5    50    6.7   263      8.9   847.3    0.00       0    999.0
  26   21:30   43.1    49    6.2   270      7.3   847.1    0.00       0    999.0
  26   21:40   41.8    51    5.7   276      7.3   847.0    0.00       0    999.0
  26   21:50   41.9    51    5.7   268      6.8   846.9    0.00       0    999.0
  26   22:00   42.9    49    4.1   229      7.2   846.9    0.00       0    999.0
  26   22:10   42.0    51    2.6   190      4.0   846.9    0.00       0    999.0
  26   22:20   41.8    51    2.6   249      5.8   847.1    0.00       0    999.0
  26   22:30   40.7    53    3.9   297      5.4   847.3    0.00       0    999.0
  26   22:40   41.5    52    3.1   308      4.6   847.3    0.00       0    999.0
  26   22:50   41.1    53    3.8   286      5.8   847.5    0.00       0    999.0
  26   23:00   40.6    54    4.3   309      5.4   847.5    0.00       0    999.0
  26   23:10   41.5    52    2.7   322      5.3   847.4    0.00       0    999.0
  26   23:20   41.2    53    2.0   324      3.6   847.3    0.00       0    999.0
  26   23:30   41.9    51    1.4   304      2.9   847.3    0.00       0    999.0
  26   23:40   42.0    52    2.7   258      4.5   847.2    0.00       0    999.0
  26   23:50   42.4    51    2.0   250      3.6   847.2    0.00       0    999.0
  27    0:00   42.8    51    2.0   268      3.8   847.2    0.00       0    999.0
  27    0:10   42.1    52    1.9   309      3.7   847.1    0.00       0    999.0
  27    0:20   42.0    52    1.5   344      3.8   847.0    0.00       0    999.0
  27    0:30   41.6    53    1.2   303      3.6   846.9    0.00       0    999.0
  27    0:40   41.9    53    1.6   241      3.5   846.9    0.00       0    999.0
  27    0:50   42.2    53    2.4   222      4.1   847.0    0.00       0    999.0
  27    1:00   42.1    54    3.3   290      5.5   847.0    0.00       0    999.0
  27    1:10   42.8    51    4.1   278      6.1   847.0    0.00       0    999.0
  27    1:20   44.4    48    2.8   303      4.3   846.8    0.00       0    999.0
  27    1:30   44.4    48    1.6   313      3.8   846.8    0.00       0    999.0
  27    1:40   44.4    48    3.1   312      5.7   846.7    0.00       0    999.0
  27    1:50   44.4    48    1.6   247      4.5   846.7    0.00       0    999.0
  27    2:00   44.3    48    1.1   264      4.0   846.8    0.00       0    999.0
  27    2:10   43.6    50    1.4    48      4.3   847.0    0.00       0    999.0
  27    2:20   41.3    55    2.6   319      5.1   847.0    0.00       0    999.0
  27    2:30   41.2    55    1.9   315      3.7   846.9    0.00       0    999.0
  27    2:40   41.6    54    1.3   278      2.6   846.8    0.00       0    999.0
  27    2:50   41.7    55    2.4   179      4.0   846.8    0.00       0    999.0
  27    3:00   41.1    57    2.3   305      4.9   847.0    0.00       0    999.0
  27    3:10   41.6    55    4.1   298      5.9   846.9    0.00       0    999.0
  27    3:20   42.6    52    3.3   309      5.7   846.8    0.00       0    999.0
  27    3:30   43.2    50    2.0    26      3.7   846.8    0.00       0    999.0
  27    3:40   42.1    53    2.5   103      4.0   846.9    0.00       0    999.0
  27    3:50   41.2    55    3.0   233      6.5   847.0    0.00       0    999.0
  27    4:00   41.5    54    4.7   278      7.8   846.9    0.00       0    999.0
  27    4:10   41.7    54    3.2   286      5.6   846.8    0.00       0    999.0
  27    4:20   42.2    53    3.0   305      4.6   846.8    0.00       0    999.0
  27    4:30   43.0    50    0.2    16      1.9   846.9    0.00       0    999.0
  27    4:40   43.5    49    1.2   316      2.8   847.0    0.00       0    999.0
  27    4:50   43.7    49    2.2   278      5.7   847.0    0.00       0    999.0
  27    5:00   43.6    49    2.0   210      6.3   847.0    0.00       0    999.0
  27    5:10   44.5    46    3.0   294     12.0   847.0    0.00       0    999.0
  27    5:20   48.0    40    4.7   265     12.0   847.1    0.00       0    999.0
  27    5:30   50.4    37    7.3   300     12.5   847.1    0.00       0    999.0
  27    5:40   49.7    38    3.7   186      7.0   847.1    0.00       0    999.0
  27    5:50   44.1    48    3.7    74      8.5   847.2    0.00       0    999.0
  27    6:00   42.4    51    3.4    47      5.4   847.3    0.00       0    999.0
  27    6:10   41.7    53    2.2   288      4.0   847.5    0.00       0    999.0
  27    6:20   42.5    50    3.3   334      7.9   847.8    0.00       0    999.0
  27    6:30   44.0    47    3.5    85      6.0   848.0    0.00       0    999.0
  27    6:40   43.8    48    2.7   323     10.9   848.1    0.00       0    999.0
  27    6:50   46.0    49    6.2   257     15.2   848.3    0.00       0    999.0
  27    7:00   47.1    51    9.3   286     19.8   848.4    0.00       0    999.0
  27    7:10   46.8    54   15.3   267     21.4   848.5    0.00       0    999.0
  27    7:20   46.3    56   14.5   260     22.0   848.6    0.00       0    999.0
  27    7:30   46.3    55   12.6   259     24.4   848.7    0.00       2    999.0
  27    7:40   46.2    56   12.1   262     18.4   848.9    0.00       5    999.0
  27    7:50   45.8    57    9.9   254     19.4   849.0    0.00       7    999.0
  27    8:00   45.5    57   11.1   244     23.0   849.1    0.00       7    999.0
  27    8:10   45.8    56    9.8   247     21.2   849.2    0.00       8    999.0
  27    8:20   45.4    59   10.2   234     18.2   849.3    0.00       8    999.0
  27    8:30   44.8    62    9.1   243     16.4   849.6    0.00      10    999.0
  27    8:40   44.1    64    7.6   286     13.3   849.8    0.00      12    999.0
  27    8:50   43.4    67    2.9    30      7.6   850.0    0.00      18    999.0
  27    9:00   42.9    71    4.3    40      8.0   850.1    0.00      27    999.0
  27    9:10   42.2    75    6.4    59     10.3   850.1    0.00      35    999.0
  27    9:20   41.7    79    4.9    59      7.6   850.2    0.00      39    999.0
  27    9:30   41.4    83    4.7    53      6.6   850.3    0.00      51    999.0
  27    9:40   41.4    84    4.0    58      6.5   850.4    0.00      74    999.0
  27    9:50   41.9    82    1.8    14      4.0   850.6    0.00      82    999.0
  27   10:00   42.4    78    0.5    11      3.4   850.7    0.00      74    999.0
  27   10:10   42.2    79    2.9    39      5.5   850.9    0.00      56    999.0
  27   10:20   42.2    78    1.7    66      4.9   851.0    0.00      54    999.0
  27   10:30   42.3    78    3.4   111      6.5   851.0    0.00      63    999.0
  27   10:40   42.2    78    5.0   117      8.1   851.0    0.00      76    999.0
  27   10:50   42.4    77    4.7   178      8.9   851.0    0.00      79    999.0
  27   11:00   42.5    78    4.2   125      6.8   851.0    0.00      92    999.0
  27   11:10   43.0    76    4.1   156      6.5   850.9    0.00     115    999.0
  27   11:20   43.4    77    4.4   164      7.1   851.0    0.00     117    999.0
  27   11:30   43.5    77    4.2   160      7.9   851.0    0.00     116    999.0
  27   11:40   43.9    75    4.0   147      6.3   850.9    0.00     144    999.0
  27   11:50   43.8    74    4.8   118      7.1   850.8    0.00     149    999.0
  27   12:00   43.7    71    5.2   118     10.3   850.8    0.00     141    999.0
  27   12:10   44.2    68    5.7   139     10.3   850.6    0.00     145    999.0
  27   12:20   44.8    63    5.4   148     12.7   850.5    0.00     172    999.0
  27   12:30   44.9    64    5.1   142     11.2   850.5    0.00     200    999.0
  27   12:40   45.4    61    6.2   193     16.8   850.4    0.00     194    999.0
  27   12:50   45.6    59    5.3   203     13.0   850.4    0.00     163    999.0
  27   13:00   45.1    63    7.5   117     15.6   850.3    0.00     161    999.0
  27   13:10   45.6    59    6.3   166     14.9   850.3    0.00     157    999.0
  27   13:20   45.8    57    7.3   251     13.9   850.3    0.00     156    999.0
  27   13:30   46.1    55    7.9   268     17.8   850.3    0.00     148    999.0
  27   13:40   46.4    55    5.4   254     11.2   850.3    0.00     152    999.0
  27   13:50   46.6    55    3.4   184     10.6   850.4    0.00     129    999.0
  27   14:00   46.4    54    5.6   256     16.9   850.5    0.00     124    999.0
  27   14:10   47.0    52    4.9   231     12.0   850.6    0.00     137    999.0
  27   14:20   47.4    52    3.4   334      9.0   850.7    0.00     152    999.0

Return to Yerington, Nevada graphs page.


Western Regional Climate Center,wrcc@dri.edu